Time;durP1;ratioP1;P1;durP2;ratioP2;P2;SDS_P1;SDS_P2;PMS_P1;PMS_P2;Temp;Humidity;BMP_temperature;BMP_pressure;BME280_temperature;BME280_humidity;BME280_pressure;Samples;Min_cycle;Max_cycle;Signal;HPM_P1;HPM_P2
2021/03/09 00:00:11;;;;;;;21.27;11.80;;;;;;;2.89;55.40;100447.25;4365141;32;33690;-90
2021/03/09 00:02:39;;;;;;;22.17;13.02;;;;;;;2.75;55.76;100456.84;4364642;32;34130;-90
2021/03/09 00:05:07;;;;;;;20.95;11.77;;;;;;;2.88;55.59;100449.88;4370828;32;34538;-90
2021/03/09 00:07:34;;;;;;;19.17;11.65;;;;;;;2.95;54.75;100449.88;4365176;32;34165;-90
2021/03/09 00:10:03;;;;;;;25.75;12.63;;;;;;;2.90;55.35;100451.63;4371180;32;35048;-90
2021/03/09 00:12:31;;;;;;;20.58;11.63;;;;;;;2.92;55.24;100455.09;4381872;32;33100;-89
2021/03/09 00:14:59;;;;;;;29.15;13.55;;;;;;;2.83;55.23;100461.19;4359958;32;33784;-88
2021/03/09 00:17:32;;;;;;;28.27;15.60;;;;;;;3.03;54.61;100452.47;4352821;32;35087;-87
2021/03/09 00:20:01;;;;;;;24.65;12.45;;;;;;;2.97;54.85;100457.69;4352697;32;33495;-88
2021/03/09 00:22:28;;;;;;;22.17;13.40;;;;;;;2.94;54.86;100452.47;4367016;32;34499;-88
2021/03/09 00:24:55;;;;;;;28.05;14.60;;;;;;;2.74;55.68;100455.13;4371265;32;33993;-87
2021/03/09 00:27:30;;;;;;;29.58;13.43;;;;;;;2.70;55.74;100459.47;4352301;32;34425;-87
2021/03/09 00:29:58;;;;;;;23.48;13.05;;;;;;;2.72;55.84;100456.88;4365280;32;33529;-87
2021/03/09 00:32:25;;;;;;;25.27;13.50;;;;;;;2.69;55.89;100447.31;4358685;32;33797;-87
2021/03/09 00:34:53;;;;;;;23.77;13.20;;;;;;;2.69;55.00;100452.53;4357068;32;34550;-87
2021/03/09 00:37:21;;;;;;;23.35;13.05;;;;;;;2.69;55.01;100452.53;4365362;32;33760;-87
2021/03/09 00:39:49;;;;;;;20.48;12.70;;;;;;;2.82;54.51;100438.59;4370031;32;35324;-87
2021/03/09 00:42:17;;;;;;;23.17;12.80;;;;;;;2.76;55.15;100445.59;4364860;32;34654;-87
2021/03/09 00:44:45;;;;;;;24.33;13.32;;;;;;;2.55;55.77;100447.31;4351861;32;34283;-87
2021/03/09 00:47:12;;;;;;;20.77;12.10;;;;;;;2.72;55.26;100442.09;4362663;32;35629;-87
2021/03/09 00:49:39;;;;;;;25.52;12.37;;;;;;;2.64;55.33;100443.84;4374790;32;33746;-86
2021/03/09 00:52:08;;;;;;;22.55;12.70;;;;;;;2.46;55.79;100455.16;4385520;32;34182;-87
2021/03/09 00:54:38;;;;;;;24.00;12.82;;;;;;;2.16;56.83;100461.22;4352389;32;33947;-87
2021/03/09 00:57:06;;;;;;;23.12;11.93;;;;;;;2.32;56.11;100456.88;4370906;32;34265;-87
2021/03/09 00:59:33;;;;;;;21.17;11.73;;;;;;;2.23;56.41;100456.88;4363648;32;34449;-87
2021/03/09 01:02:01;;;;;;;21.77;11.68;;;;;;;2.20;56.12;100460.37;4366543;32;34855;-86
2021/03/09 01:04:28;;;;;;;19.52;11.55;;;;;;;2.39;55.54;100447.34;4368136;32;33846;-87
2021/03/09 01:06:56;;;;;;;19.42;11.70;;;;;;;2.52;54.74;100449.94;4373095;32;33387;-87
2021/03/09 01:09:23;;;;;;;22.62;11.93;;;;;;;2.12;55.66;100451.66;4385871;32;34138;-90
2021/03/09 01:11:51;;;;;;;20.90;11.15;;;;;;;2.34;55.07;100444.75;4378191;32;33743;-90
2021/03/09 01:14:18;;;;;;;21.90;12.07;;;;;;;2.26;55.71;100449.06;4365937;32;33347;-89
2021/03/09 01:16:45;;;;;;;19.80;11.00;;;;;;;2.28;55.50;100439.53;4352959;32;34766;-89
2021/03/09 01:19:13;;;;;;;24.87;12.20;;;;;;;2.27;55.20;100440.37;4353153;32;34294;-89
2021/03/09 01:21:40;;;;;;;21.50;11.43;;;;;;;2.39;54.71;100440.41;4350431;32;33803;-89
2021/03/09 01:24:08;;;;;;;19.75;11.63;;;;;;;2.25;55.10;100440.37;4350614;32;35430;-90
2021/03/09 01:26:35;;;;;;;24.10;12.20;;;;;;;2.23;54.93;100431.72;4375383;32;34328;-90
2021/03/09 01:29:03;;;;;;;22.10;12.85;;;;;;;2.15;55.16;100433.44;4353061;32;33925;-89
2021/03/09 01:31:30;;;;;;;21.73;11.30;;;;;;;2.09;55.12;100429.94;4353172;32;34726;-89
2021/03/09 01:33:57;;;;;;;20.95;11.65;;;;;;;2.09;55.03;100427.34;4353252;32;34220;-89
2021/03/09 01:36:25;;;;;;;22.17;11.55;;;;;;;2.14;54.66;100423.91;4365551;32;34599;-90
2021/03/09 01:38:52;;;;;;;22.73;11.15;;;;;;;2.02;55.29;100431.69;4355952;32;34486;-90
2021/03/09 01:41:22;;;;;;;20.08;10.82;;;;;;;1.83;55.90;100429.91;4373769;32;33497;-90
2021/03/09 01:43:50;;;;;;;18.80;11.32;;;;;;;1.72;56.42;100427.31;4341440;32;34596;-90
2021/03/09 01:46:20;;;;;;;19.90;11.48;;;;;;;1.62;56.64;100426.41;4353619;32;34837;-89
2021/03/09 01:48:48;;;;;;;20.50;9.85;;;;;;;1.54;56.86;100423.78;4365925;32;33676;-89
2021/03/09 01:51:17;;;;;;;19.87;10.93;;;;;;;1.68;56.30;100429.03;4350536;32;34094;-89
2021/03/09 01:53:44;;;;;;;19.77;10.13;;;;;;;1.75;56.03;100419.47;4350615;32;34154;-89
2021/03/09 01:56:12;;;;;;;21.17;11.18;;;;;;;1.66;55.71;100412.53;4371019;32;34036;-88
2021/03/09 01:58:42;;;;;;;19.67;11.60;;;;;;;1.89;54.87;100415.16;4365132;32;34236;-88
2021/03/09 02:01:09;;;;;;;21.48;11.95;;;;;;;1.93;54.58;100421.25;4352227;32;33439;-88
2021/03/09 02:03:37;;;;;;;20.23;11.02;;;;;;;1.93;54.62;100410.84;4353136;32;34780;-89
2021/03/09 02:06:05;;;;;;;20.73;11.18;;;;;;;1.87;54.23;100408.22;4350765;32;34451;-89
2021/03/09 02:08:33;;;;;;;20.55;11.20;;;;;;;1.39;55.73;100410.72;4370852;32;34381;-89
2021/03/09 02:11:02;;;;;;;22.50;11.15;;;;;;;1.57;55.53;100407.31;4351980;32;33782;-89
2021/03/09 02:14:05;;;;;;;18.20;10.32;;;;;;;1.27;56.40;100411.53;4351128;32;35557;-88
2021/03/09 02:16:35;;;;;;;18.08;9.77;;;;;;;1.35;56.63;100415.91;4339193;32;34715;-88
2021/03/09 02:19:41;;;;;;;20.83;9.10;;;;;;;1.62;55.81;100408.19;4357235;32;35576;-88
2021/03/09 02:22:44;;;;;;;18.70;10.15;;;;;;;1.29;56.68;100421.97;4364901;32;33347;-88
2021/03/09 02:25:33;;;;;;;18.53;9.57;;;;;;;1.22;56.92;100413.25;4362862;32;33963;-88
2021/03/09 02:28:39;;;;;;;16.60;9.40;;;;;;;0.99;57.30;100418.34;4352750;32;32632;-88
2021/03/09 02:31:07;;;;;;;14.68;9.20;;;;;;;0.94;57.13;100419.19;4387960;32;33689;-88
2021/03/09 02:33:43;;;;;;;20.23;10.18;;;;;;;1.13;56.41;100410.63;4362615;32;34550;-88
2021/03/09 02:36:17;;;;;;;19.30;9.85;;;;;;;1.19;55.96;100410.66;4365091;32;33502;-88
2021/03/09 02:38:48;;;;;;;22.08;9.82;;;;;;;1.18;56.19;100408.91;4355626;32;33974;-88
2021/03/09 02:41:17;;;;;;;20.50;10.55;;;;;;;1.10;56.26;100408.03;4349298;32;35418;-88
2021/03/09 02:43:47;;;;;;;17.15;8.90;;;;;;;1.24;55.91;100410.69;4365042;32;33507;-89
2021/03/09 02:46:15;;;;;;;19.30;9.73;;;;;;;1.15;56.00;100408.91;4350077;32;34580;-89
2021/03/09 02:48:44;;;;;;;16.95;10.20;;;;;;;1.16;55.70;100414.97;4370014;32;34819;-87
2021/03/09 02:51:24;;;;;;;15.75;9.57;;;;;;;1.24;55.46;100400.28;4355934;32;35596;-87
2021/03/09 02:53:55;;;;;;;17.02;9.88;;;;;;;1.15;55.60;100400.25;4364790;32;33254;-87
2021/03/09 02:56:23;;;;;;;19.02;9.50;;;;;;;1.17;55.43;100401.97;4351304;32;32601;-87
2021/03/09 02:58:53;;;;;;;20.90;10.05;;;;;;;1.21;55.27;100401.12;4351740;32;34311;-87
2021/03/09 03:01:24;;;;;;;18.52;10.02;;;;;;;1.23;54.95;100401.97;4362361;32;33064;-89
2021/03/09 03:03:52;;;;;;;16.73;9.50;;;;;;;0.84;56.34;100412.22;4352943;32;33843;-88
2021/03/09 03:06:21;;;;;;;21.23;10.23;;;;;;;0.91;56.50;100408.78;4357471;32;32446;-90
2021/03/09 03:08:49;;;;;;;22.17;10.88;;;;;;;0.74;56.83;100409.56;4349840;32;34393;-91
2021/03/09 03:11:17;;;;;;;23.80;11.23;;;;;;;0.74;57.39;100413.87;4364795;32;33558;-90
2021/03/09 03:13:51;;;;;;;21.37;10.75;;;;;;;0.63;57.44;100403.44;4349859;32;34068;-88
2021/03/09 03:16:20;;;;;;;17.48;10.18;;;;;;;0.78;56.87;100402.66;4352326;32;33870;-89
2021/03/09 03:18:48;;;;;;;18.98;10.32;;;;;;;0.53;57.06;100405.97;4364976;32;32837;-90
2021/03/09 03:21:16;;;;;;;20.52;9.23;;;;;;;0.64;57.05;100410.37;4368632;32;33686;-89
2021/03/09 03:23:43;;;;;;;22.58;10.75;;;;;;;0.78;56.05;100410.44;4378294;32;33657;-89
2021/03/09 03:26:11;;;;;;;18.95;9.93;;;;;;;1.11;54.82;100408.88;4351162;32;34214;-89
2021/03/09 03:28:43;;;;;;;33.47;11.85;;;;;;;0.69;56.14;100403.47;4376318;32;33766;-89
2021/03/09 03:31:11;;;;;;;19.77;10.50;;;;;;;0.66;55.94;100410.37;4354159;32;33937;-91
2021/03/09 03:33:39;;;;;;;21.75;11.50;;;;;;;0.64;55.73;100402.56;4377044;32;33473;-90
2021/03/09 03:36:07;;;;;;;19.75;10.57;;;;;;;0.31;56.64;100410.13;4351792;32;34034;-90
2021/03/09 03:38:36;;;;;;;26.27;11.05;;;;;;;0.49;56.48;100412.88;4354293;32;32928;-91
2021/03/09 03:41:26;;;;;;;16.30;9.05;;;;;;;0.15;57.56;100410.03;4391863;32;33463;-88
2021/03/09 03:43:54;;;;;;;20.25;10.13;;;;;;;0.15;57.79;100412.63;4368845;32;32494;-88
2021/03/09 03:46:21;;;;;;;23.12;11.05;;;;;;;0.27;57.05;100411.81;4368922;32;33624;-89
2021/03/09 03:48:49;;;;;;;23.62;10.98;;;;;;;0.11;57.96;100413.44;4367908;32;34736;-88
2021/03/09 03:51:16;;;;;;;17.33;9.68;;;;;;;0.12;57.95;100409.97;4374418;32;33581;-88
2021/03/09 03:53:58;;;;;;;18.60;9.85;;;;;;;0.51;56.13;100408.53;4371986;32;33752;-87
2021/03/09 03:56:35;;;;;;;17.80;9.38;;;;;;;0.12;57.60;100422.97;4384137;32;34228;-88
2021/03/09 03:59:10;;;;;;;19.87;10.55;;;;;;;0.11;57.29;100418.62;4379390;32;34558;-89
2021/03/09 04:01:38;;;;;;;23.23;10.68;;;;;;;-0.03;57.07;100421.09;4381403;32;34195;-89
2021/03/09 04:04:10;;;;;;;23.42;9.40;;;;;;;-0.16;57.66;100423.56;4381753;32;33129;-89
2021/03/09 04:06:42;;;;;;;16.15;9.52;;;;;;;-0.07;57.80;100428.84;4368363;32;35241;-90
2021/03/09 04:09:11;;;;;;;18.05;8.90;;;;;;;-0.02;57.38;100433.22;4381750;32;34312;-89
2021/03/09 04:11:39;;;;;;;18.83;9.50;;;;;;;0.05;57.27;100428.09;4371658;32;32645;-90
2021/03/09 04:14:12;;;;;;;16.02;9.57;;;;;;;0.23;56.36;100429.09;4368236;32;31789;-88
2021/03/09 04:16:52;;;;;;;15.57;8.82;;;;;;;-0.07;56.43;100427.13;4368757;32;35125;-89
2021/03/09 04:19:21;;;;;;;20.98;8.93;;;;;;;-0.05;56.85;100427.13;4380835;32;33942;-92
2021/03/09 04:22:14;;;;;;;17.62;8.57;;;;;;;0.09;56.35;100433.31;4373574;32;33962;-91
2021/03/09 04:24:55;;;;;;;16.37;8.27;;;;;;;0.23;55.85;100428.25;4403129;32;34368;-93
2021/03/09 04:27:46;;;;;;;13.57;8.25;;;;;;;0.21;55.98;100428.25;4386060;32;32606;-91
2021/03/09 04:30:24;;;;;;;14.60;7.55;;;;;;;0.18;55.90;100425.59;4407912;32;34301;-90
2021/03/09 04:33:28;;;;;;;12.60;7.20;;;;;;;0.23;55.74;100433.44;4383964;32;32676;-91
2021/03/09 04:36:08;;;;;;;15.00;8.13;;;;;;;-0.10;56.97;100440.06;4396552;32;33335;-89
2021/03/09 04:39:00;;;;;;;17.75;9.05;;;;;;;-0.05;56.61;100437.50;4409341;32;34854;-90
2021/03/09 04:41:28;;;;;;;18.42;6.97;;;;;;;-0.01;56.31;100441.88;4384184;32;34832;-91
2021/03/09 04:44:12;;;;;;;11.95;7.40;;;;;;;-0.10;56.79;100434.00;4399603;32;34029;-91
2021/03/09 04:47:01;;;;;;;16.17;7.55;;;;;;;-0.12;57.13;100443.53;4401239;32;33218;-91
2021/03/09 04:49:34;;;;;;;12.85;6.95;;;;;;;-0.26;57.94;100444.25;4411836;32;34418;-92
2021/03/09 04:52:16;;;;;;;14.27;7.57;;;;;;;-0.13;57.24;100442.66;4391939;32;34161;-92
2021/03/09 04:55:15;;;;;;;13.75;8.43;;;;;;;0.08;56.13;100444.56;4410416;32;34250;-91
2021/03/09 04:57:54;;;;;;;17.08;8.38;;;;;;;0.18;55.58;100441.19;4388351;32;32397;-89
2021/03/09 05:00:33;;;;;;;16.95;8.93;;;;;;;0.04;55.42;100436.72;4416778;32;35059;-92
2021/03/09 05:03:00;;;;;;;12.93;7.40;;;;;;;-0.22;56.25;100437.37;4386400;32;32137;-92
2021/03/09 05:05:52;;;;;;;16.70;8.13;;;;;;;-0.19;56.47;100444.28;4380351;32;33889;-92
2021/03/09 05:08:41;;;;;;;14.68;8.50;;;;;;;-0.48;57.66;100452.62;4373292;32;33833;-93
2021/03/09 05:11:33;;;;;;;19.25;9.07;;;;;;;-0.53;58.10;100455.19;4376955;32;34392;-92
2021/03/09 05:14:12;;;;;;;17.52;8.88;;;;;;;-0.61;58.36;100440.41;4404405;32;34457;-93
2021/03/09 05:17:03;;;;;;;16.95;8.18;;;;;;;-0.38;57.21;100438.94;4378086;32;33503;-88
2021/03/09 05:19:31;;;;;;;16.27;7.47;;;;;;;-0.39;56.55;100447.56;4390837;32;34490;-90
2021/03/09 05:21:59;;;;;;;17.92;8.45;;;;;;;-0.26;56.15;100448.56;4378385;32;34429;-89
2021/03/09 05:24:27;;;;;;;21.48;9.25;;;;;;;-0.51;57.72;100447.44;4378732;32;34014;-89
2021/03/09 05:26:55;;;;;;;19.37;9.25;;;;;;;-0.44;57.82;100444.03;4391183;32;34453;-89
2021/03/09 05:29:23;;;;;;;20.73;9.93;;;;;;;-0.55;57.45;100435.28;4391305;32;34993;-89
2021/03/09 05:31:51;;;;;;;16.62;8.50;;;;;;;-0.66;58.11;100447.25;4367289;32;34917;-86
2021/03/09 05:34:18;;;;;;;21.15;10.07;;;;;;;-0.65;57.90;100447.28;4368798;32;33996;-86
2021/03/09 05:36:45;;;;;;;20.33;10.30;;;;;;;-0.74;57.31;100444.56;4396889;32;33593;-87
2021/03/09 05:39:13;;;;;;;24.98;14.40;;;;;;;-0.82;57.90;100449.63;4385066;32;34033;-87
2021/03/09 05:41:40;;;;;;;26.10;12.77;;;;;;;-0.44;56.99;100441.44;4378393;32;34047;-87
2021/03/09 05:44:08;;;;;;;28.23;14.23;;;;;;;-0.51;57.89;100442.25;4379581;32;33979;-87
2021/03/09 05:46:35;;;;;;;26.75;13.25;;;;;;;-0.34;57.38;100440.69;4379357;32;34890;-87
2021/03/09 05:49:03;;;;;;;23.70;13.27;;;;;;;-0.22;56.69;100439.97;4380950;32;33800;-87
2021/03/09 05:51:48;;;;;;;25.05;11.85;;;;;;;-0.24;57.33;100452.03;4377775;32;34598;-86
2021/03/09 05:54:17;;;;;;;27.60;12.55;;;;;;;-0.21;56.96;100446.87;4398455;32;33806;-87
2021/03/09 05:56:44;;;;;;;24.50;12.35;;;;;;;-0.21;57.19;100456.41;4397685;32;34411;-88
2021/03/09 05:59:12;;;;;;;30.20;11.70;;;;;;;-0.29;57.77;100453.72;4390206;32;34146;-88
2021/03/09 06:01:39;;;;;;;40.28;13.48;;;;;;;-0.21;57.89;100452.06;4390723;32;33652;-87
2021/03/09 06:04:07;;;;;;;28.12;13.85;;;;;;;0.05;57.59;100454.94;4377818;32;34151;-87
2021/03/09 06:06:35;;;;;;;37.72;15.32;;;;;;;-0.06;58.44;100459.16;4399684;32;34032;-88
2021/03/09 06:09:32;;;;;;;47.40;17.85;;;;;;;-0.03;57.92;100461.78;4383954;32;34242;-88
2021/03/09 06:12:10;;;;;;;44.17;18.20;;;;;;;0.34;57.37;100468.19;4385705;32;34567;-89
2021/03/09 06:14:59;;;;;;;47.42;19.98;;;;;;;0.58;56.73;100459.72;4385167;32;34364;-88
2021/03/09 06:17:37;;;;;;;48.78;19.42;;;;;;;0.30;57.85;100457.75;4403560;32;34434;-92
2021/03/09 06:20:17;;;;;;;42.97;19.02;;;;;;;0.32;58.10;100463.81;4414631;32;33263;-87
2021/03/09 06:23:08;;;;;;;37.47;15.57;;;;;;;0.33;57.57;100461.22;4407761;32;35351;-88
2021/03/09 06:25:39;;;;;;;35.55;15.88;;;;;;;0.48;57.16;100463.09;4407090;32;34104;-88
2021/03/09 06:28:09;;;;;;;41.45;16.65;;;;;;;0.58;57.09;100467.50;4407585;32;33606;-88
2021/03/09 06:30:39;;;;;;;50.20;19.27;;;;;;;0.70;56.85;100462.38;4395085;32;34083;-89
2021/03/09 06:33:07;;;;;;;42.47;17.90;;;;;;;0.77;56.86;100464.19;4395145;32;34288;-88
2021/03/09 06:35:39;;;;;;;55.70;19.48;;;;;;;0.87;56.58;100472.03;4394758;32;35212;-88
2021/03/09 06:38:17;;;;;;;47.62;19.27;;;;;;;0.89;56.84;100468.56;4393638;32;34458;-88
2021/03/09 06:41:04;;;;;;;52.80;19.65;;;;;;;1.12;56.64;100470.44;4415282;32;33218;-88
2021/03/09 06:43:33;;;;;;;54.50;20.80;;;;;;;1.33;56.35;100465.34;4399250;32;34312;-81
2021/03/09 06:46:12;;;;;;;55.40;20.02;;;;;;;1.63;56.51;100471.53;4379199;32;34623;-85
2021/03/09 06:48:40;;;;;;;47.55;21.52;;;;;;;1.84;56.45;100462.91;4405049;32;33676;-86
2021/03/09 06:51:50;;;;;;;47.65;20.83;;;;;;;1.68;56.46;100473.28;4395933;32;33826;-84
2021/03/09 06:54:17;;;;;;;44.78;18.35;;;;;;;2.08;55.25;100462.94;4402349;32;33511;-86
2021/03/09 06:56:46;;;;;;;38.97;16.73;;;;;;;2.10;55.94;100469.03;4406485;32;33715;-86
2021/03/09 06:59:27;;;;;;;17.08;7.75;;;;;;;2.25;53.99;100466.44;4398214;32;34471;-85
2021/03/09 07:02:01;;;;;;;;;;;;;;;2.22;50.37;100463.81;4422913;32;33023;-85
2021/03/09 07:04:29;;;;;;;16.08;6.65;;;;;;;2.58;50.87;100472.53;4423137;32;33571;-85
2021/03/09 07:06:57;;;;;;;10.95;6.05;;;;;;;2.50;50.48;100471.66;4410203;32;100952;-85
2021/03/09 07:09:24;;;;;;;11.38;5.20;;;;;;;2.53;48.29;100471.66;4398636;32;33265;-85
2021/03/09 07:11:53;;;;;;;8.15;4.57;;;;;;;2.40;47.49;100465.56;4399552;32;32954;-85
2021/03/09 07:14:22;;;;;;;14.18;5.40;;;;;;;2.73;47.24;100464.69;4402220;32;35020;-84
2021/03/09 07:16:52;;;;;;;10.30;4.78;;;;;;;2.64;47.37;100462.09;4396836;32;34509;-84
2021/03/09 07:19:25;;;;;;;15.23;5.32;;;;;;;2.67;46.01;100475.13;4401995;32;34173;-84
2021/03/09 07:21:52;;;;;;;11.77;5.37;;;;;;;3.01;46.50;100475.09;4402700;32;33657;-85
2021/03/09 07:24:21;;;;;;;14.05;5.07;;;;;;;3.07;46.08;100467.22;4395700;32;34289;-84
2021/03/09 07:26:54;;;;;;;11.38;5.62;;;;;;;3.07;44.74;100475.06;4399020;32;34607;-85
2021/03/09 07:29:25;;;;;;;12.60;5.47;;;;;;;3.49;44.02;100467.97;4399853;32;33660;-85
2021/03/09 07:31:55;;;;;;;16.48;6.35;;;;;;;3.73;44.04;100461.75;4408653;32;34551;-84
2021/03/09 07:34:25;;;;;;;10.95;5.47;;;;;;;3.72;43.79;100460.03;4379484;32;35736;-84
2021/03/09 07:36:55;;;;;;;13.80;5.05;;;;;;;3.43;44.45;100457.56;4400219;32;34538;-84
2021/03/09 07:39:22;;;;;;;13.40;5.43;;;;;;;3.89;43.29;100458.16;4398118;32;34890;-85
2021/03/09 07:41:51;;;;;;;12.35;5.03;;;;;;;3.92;42.79;100462.53;4398828;32;33528;-85
2021/03/09 07:44:18;;;;;;;7.87;4.00;;;;;;;4.36;41.66;100460.47;4401069;32;34339;-85
2021/03/09 07:46:46;;;;;;;7.45;4.00;;;;;;;4.22;39.75;100458.81;4394664;32;34372;-84
2021/03/09 07:49:13;;;;;;;13.02;4.82;;;;;;;4.20;40.62;100469.31;4386396;32;33708;-85
2021/03/09 07:52:11;;;;;;;16.33;4.55;;;;;;;4.43;41.06;100465.66;4398329;32;33144;-85
2021/03/09 07:54:39;;;;;;;6.40;2.87;;;;;;;4.58;40.59;100455.06;4391131;32;32425;-85
2021/03/09 07:57:16;;;;;;;13.80;4.00;;;;;;;4.25;39.49;100464.91;4387154;32;32337;-85
2021/03/09 07:59:54;;;;;;;8.52;3.20;;;;;;;4.19;41.15;100467.56;4414817;32;34078;-85
2021/03/09 08:02:39;;;;;;;6.10;2.70;;;;;;;4.58;38.21;100470.75;4391172;32;32623;-85
2021/03/09 08:05:09;;;;;;;5.60;2.75;;;;;;;4.70;36.28;100459.31;4409327;32;33540;-85
2021/03/09 08:07:46;;;;;;;5.05;2.53;;;;;;;4.88;36.49;100462.59;4402935;32;33841;-85
2021/03/09 08:10:36;;;;;;;7.90;2.75;;;;;;;5.02;35.72;100456.38;4400178;32;33951;-85
2021/03/09 08:13:09;;;;;;;6.70;3.70;;;;;;;4.90;37.46;100462.62;4410357;32;32952;-85
2021/03/09 08:15:38;;;;;;;9.60;2.95;;;;;;;5.12;37.22;100458.88;4409928;32;34148;-87
2021/03/09 08:18:16;;;;;;;4.28;2.55;;;;;;;5.07;36.75;100460.66;4400290;32;34441;-86
2021/03/09 08:20:53;;;;;;;7.12;3.40;;;;;;;5.46;35.38;100455.00;4407920;32;33044;-87
2021/03/09 08:23:36;;;;;;;6.80;3.42;;;;;;;5.29;35.15;100458.69;4398635;32;34252;-87
2021/03/09 08:26:13;;;;;;;8.75;3.35;;;;;;;5.36;35.03;100460.37;4397201;32;31529;-87
2021/03/09 08:28:52;;;;;;;12.68;3.90;;;;;;;5.23;34.05;100460.53;4409727;32;33869;-87
2021/03/09 08:31:21;;;;;;;11.60;3.35;;;;;;;5.07;35.67;100465.03;4393651;32;33600;-87
2021/03/09 08:34:07;;;;;;;6.20;3.10;;;;;;;5.84;34.91;100450.13;4407702;32;32817;-87
2021/03/09 08:36:36;;;;;;;6.53;3.37;;;;;;;5.67;35.16;100454.72;4399830;32;33229;-87
2021/03/09 08:39:13;;;;;;;7.32;3.62;;;;;;;6.03;32.82;100457.75;4397608;32;34468;-87
2021/03/09 08:41:41;;;;;;;5.22;2.42;;;;;;;5.81;32.54;100449.31;4406868;32;34242;-86
2021/03/09 08:44:14;;;;;;;6.40;3.08;;;;;;;5.86;33.13;100445.72;4411111;32;33272;-86
2021/03/09 08:47:03;;;;;;;4.12;2.30;;;;;;;5.72;32.18;100439.81;4412347;32;34669;-85
2021/03/09 08:49:36;;;;;;;6.62;3.20;;;;;;;6.05;31.36;100437.63;4409586;32;34340;-85
2021/03/09 08:52:12;;;;;;;5.28;2.12;;;;;;;6.29;31.46;100439.88;4407675;32;33580;-86
2021/03/09 08:54:45;;;;;;;7.05;2.37;;;;;;;6.06;31.27;100439.38;4389224;32;32818;-85
2021/03/09 08:57:17;;;;;;;7.97;3.25;;;;;;;5.83;31.51;100430.03;4406992;32;33446;-86
2021/03/09 08:59:46;;;;;;;8.02;2.47;;;;;;;5.85;31.54;100436.13;4411387;32;33065;-85
2021/03/09 09:02:15;;;;;;;4.20;2.25;;;;;;;5.83;31.57;100431.78;4393513;32;33251;-85
2021/03/09 09:04:44;;;;;;;4.55;2.30;;;;;;;5.87;30.31;100426.50;4410356;32;33229;-86
2021/03/09 09:07:23;;;;;;;4.62;1.77;;;;;;;6.06;29.37;100437.59;4391923;32;34231;-86
2021/03/09 09:09:54;;;;;;;5.25;2.17;;;;;;;6.07;31.72;100434.09;4405070;32;34112;-86
2021/03/09 09:12:27;;;;;;;6.12;2.15;;;;;;;6.71;29.25;100429.56;4410972;32;35596;-86
2021/03/09 09:15:11;;;;;;;4.25;2.30;;;;;;;6.93;30.52;100424.75;4404297;32;32478;-86
2021/03/09 09:17:47;;;;;;;4.95;2.53;;;;;;;6.93;29.16;100409.91;4396420;32;32675;-86
2021/03/09 09:20:33;;;;;;;5.25;2.50;;;;;;;7.16;30.32;100416.44;4405521;32;34804;-86
2021/03/09 09:23:25;;;;;;;5.90;2.75;;;;;;;6.88;29.60;100427.50;4397311;32;33765;-86
2021/03/09 09:26:02;;;;;;;4.80;2.15;;;;;;;7.02;28.91;100415.84;4399551;32;32386;-86
2021/03/09 09:28:31;;;;;;;6.82;2.95;;;;;;;7.03;31.13;100415.84;4400133;32;34618;-86
2021/03/09 09:31:02;;;;;;;5.20;3.45;;;;;;;7.33;29.41;100406.47;4399535;32;33246;-86
2021/03/09 09:33:50;;;;;;;4.03;2.30;;;;;;;7.79;28.90;100408.09;4391384;32;34125;-86
2021/03/09 09:36:19;;;;;;;8.05;2.53;;;;;;;7.73;28.37;100405.59;4391992;32;33340;-86
2021/03/09 09:38:54;;;;;;;4.50;2.62;;;;;;;7.61;32.99;100408.50;4405012;32;34093;-86
2021/03/09 09:41:23;;;;;;;5.30;3.30;;;;;;;7.85;28.05;100402.69;4380124;32;34633;-86
2021/03/09 09:43:50;;;;;;;7.55;3.10;;;;;;;8.22;29.63;100388.69;4403715;32;33993;-86
2021/03/09 09:46:20;;;;;;;10.60;3.58;;;;;;;8.68;26.76;100382.25;4393765;32;33878;-87
2021/03/09 09:48:48;;;;;;;6.68;2.53;;;;;;;8.61;27.08;100388.59;4406991;32;33641;-86
2021/03/09 09:51:18;;;;;;;5.18;3.20;;;;;;;8.61;30.00;100383.34;4406064;32;33599;-86
2021/03/09 09:53:50;;;;;;;7.55;3.28;;;;;;;8.85;26.56;100385.31;4387273;32;34251;-86
2021/03/09 09:56:17;;;;;;;;;;;;;;;8.04;28.63;100391.75;4390586;32;33957;-87
2021/03/09 09:58:46;;;;;;;6.55;3.22;;;;;;;8.07;30.01;100391.66;4406333;32;33782;-86
2021/03/09 10:01:15;;;;;;;6.55;3.35;;;;;;;8.36;27.62;100388.34;4408735;32;33859;-85
2021/03/09 10:03:53;;;;;;;5.10;2.95;;;;;;;8.74;28.09;100381.25;4413994;32;33447;-86
2021/03/09 10:06:21;;;;;;;7.55;2.65;;;;;;;8.93;28.36;100374.56;4406768;32;33199;-86
2021/03/09 10:08:50;;;;;;;6.40;3.62;;;;;;;9.03;26.04;100375.19;4392833;32;33680;-85
2021/03/09 10:11:17;;;;;;;8.32;4.05;;;;;;;8.68;27.25;100372.59;4379872;32;34398;-86
2021/03/09 10:13:44;;;;;;;5.45;3.45;;;;;;;9.02;26.11;100368.16;4417949;32;34505;-86
2021/03/09 10:16:15;;;;;;;5.07;3.47;;;;;;;8.48;28.17;100367.00;4396744;32;33112;-86
2021/03/09 10:18:46;;;;;;;;;;;;;;;9.23;26.70;100364.94;4410469;32;33586;-85
2021/03/09 10:21:15;;;;;;;7.78;4.45;;;;;;;8.44;28.76;100370.59;4399821;32;34471;-86
2021/03/09 10:23:51;;;;;;;5.40;4.12;;;;;;;8.42;29.12;100370.66;4393184;32;35887;-86
2021/03/09 10:26:30;;;;;;;10.57;3.90;;;;;;;8.85;28.95;100366.88;4402597;32;33144;-86
2021/03/09 10:29:02;;;;;;;6.55;4.12;;;;;;;9.32;27.12;100362.03;4404982;32;33470;-86
2021/03/09 10:31:40;;;;;;;9.00;3.53;;;;;;;9.58;24.85;100357.72;4385844;32;35154;-86
2021/03/09 10:34:08;;;;;;;7.32;3.37;;;;;;;9.48;26.29;100350.09;4405203;32;33539;-86
2021/03/09 10:36:56;;;;;;;6.57;3.45;;;;;;;9.07;26.72;100347.81;4400593;32;33210;-86
2021/03/09 10:39:24;;;;;;;4.87;3.37;;;;;;;8.73;26.20;100343.50;4382907;32;35337;-87
2021/03/09 10:41:52;;;;;;;7.25;4.15;;;;;;;9.33;25.59;100336.53;4392573;32;33713;-86
2021/03/09 10:44:36;;;;;;;9.88;4.05;;;;;;;8.76;27.83;100339.94;4388762;32;35619;-86
2021/03/09 10:47:05;;;;;;;6.45;3.65;;;;;;;9.10;27.47;100340.69;4398338;32;33311;-86
2021/03/09 10:49:34;;;;;;;8.65;4.07;;;;;;;9.65;27.41;100330.28;4393397;32;34179;-86
2021/03/09 10:52:06;;;;;;;8.30;3.40;;;;;;;9.45;28.34;100334.41;4397371;32;34369;-87
2021/03/09 10:54:37;;;;;;;5.87;3.05;;;;;;;9.19;28.77;100334.31;4398270;32;33535;-86
2021/03/09 10:57:12;;;;;;;9.63;3.17;;;;;;;8.72;28.56;100339.16;4396472;32;33368;-86
2021/03/09 10:59:40;;;;;;;10.20;4.28;;;;;;;9.08;27.19;100336.41;4401528;32;33746;-85
2021/03/09 11:02:08;;;;;;;6.07;3.30;;;;;;;8.94;26.21;100323.62;4408875;32;34358;-86
2021/03/09 11:04:36;;;;;;;8.43;4.07;;;;;;;9.40;25.35;100325.75;4404043;32;32560;-86
2021/03/09 11:07:04;;;;;;;6.18;3.90;;;;;;;9.21;29.08;100327.22;4408757;32;33327;-87
2021/03/09 11:09:31;;;;;;;6.55;3.40;;;;;;;9.63;24.10;100324.16;4409343;32;33850;-87
2021/03/09 11:12:00;;;;;;;6.85;3.65;;;;;;;8.93;25.23;100322.75;4400946;32;33923;-86
2021/03/09 11:14:29;;;;;;;5.03;3.20;;;;;;;9.34;25.38;100318.03;4393310;32;33578;-87
2021/03/09 11:16:56;;;;;;;5.55;3.45;;;;;;;9.27;25.37;100316.50;4409199;32;32926;-87
2021/03/09 11:19:24;;;;;;;8.23;3.50;;;;;;;9.63;24.12;100313.62;4397875;32;35529;-86
2021/03/09 11:21:52;;;;;;;7.65;4.20;;;;;;;9.31;27.11;100304.97;4400530;32;34618;-86
2021/03/09 11:24:20;;;;;;;7.53;3.42;;;;;;;9.33;26.98;100295.22;4411974;32;33564;-85
2021/03/09 11:26:47;;;;;;;6.72;4.32;;;;;;;9.39;28.32;100302.94;4405662;32;33509;-86
2021/03/09 11:29:15;;;;;;;7.65;4.68;;;;;;;9.38;26.42;100303.84;4394124;32;35483;-91
2021/03/09 11:31:42;;;;;;;6.97;3.85;;;;;;;9.39;25.13;100299.44;4390396;32;35388;-89
2021/03/09 11:34:10;;;;;;;5.68;3.55;;;;;;;10.50;24.10;100287.00;4402826;32;34459;-89
2021/03/09 11:36:37;;;;;;;5.47;3.72;;;;;;;10.09;23.44;100296.31;4379760;32;34701;-89
2021/03/09 11:39:05;;;;;;;6.50;4.18;;;;;;;9.30;27.05;100287.41;4382550;32;35000;-89
2021/03/09 11:41:32;;;;;;;10.70;3.97;;;;;;;9.53;27.18;100283.19;4388966;32;33383;-88
2021/03/09 11:44:07;;;;;;;7.07;3.87;;;;;;;9.45;25.87;100279.03;4401910;32;33266;-88
2021/03/09 11:46:36;;;;;;;5.37;3.83;;;;;;;9.84;24.47;100275.16;4390958;32;33777;-88
2021/03/09 11:49:06;;;;;;;6.78;3.85;;;;;;;9.81;24.65;100281.37;4405600;32;33969;-88